Time;durP1;ratioP1;P1;durP2;ratioP2;P2;SDS_P1;SDS_P2;PMS_P1;PMS_P2;Temp;Humidity;BMP_temperature;BMP_pressure;BME280_temperature;BME280_humidity;BME280_pressure;Samples;Min_cycle;Max_cycle;Signal;HPM_P1;HPM_P2
2023/04/02 00:01:52;;;;;;;9.52;4.82;;;11.00;99.90;;;;;;5051731;28;20367;-75
2023/04/02 00:04:22;;;;;;;10.27;4.97;;;11.00;99.90;;;;;;5052784;28;20028;-74
2023/04/02 00:06:53;;;;;;;8.52;5.03;;;10.90;99.90;;;;;;5052743;28;20091;-74
2023/04/02 00:09:26;;;;;;;7.50;5.55;;;10.90;99.90;;;;;;5052524;28;20468;-74
2023/04/02 00:11:55;;;;;;;12.70;5.45;;;11.00;99.90;;;;;;5052707;28;20025;-74
2023/04/02 00:14:29;;;;;;;7.72;4.82;;;11.00;99.90;;;;;;5052708;28;20025;-74
2023/04/02 00:16:56;;;;;;;9.38;5.68;;;11.00;99.90;;;;;;5052841;28;20044;-75
2023/04/02 00:19:32;;;;;;;8.43;5.38;;;11.00;99.90;;;;;;5052511;28;20079;-74
2023/04/02 00:21:59;;;;;;;8.30;5.63;;;11.10;99.90;;;;;;5052392;28;20360;-74
2023/04/02 00:24:25;;;;;;;8.88;5.75;;;11.10;99.90;;;;;;5052312;28;20020;-74
2023/04/02 00:26:52;;;;;;;9.10;5.50;;;11.20;99.90;;;;;;5053503;28;20048;-74
2023/04/02 00:29:18;;;;;;;9.73;5.68;;;11.20;99.90;;;;;;5035632;28;20044;-74
2023/04/02 00:31:49;;;;;;;7.30;5.00;;;11.20;99.90;;;;;;5051414;28;20283;-74
2023/04/02 00:34:35;;;;;;;9.73;5.75;;;11.10;99.90;;;;;;5036375;28;20029;-75
2023/04/02 00:37:02;;;;;;;7.03;4.90;;;11.10;99.90;;;;;;5035555;28;20036;-73
2023/04/02 00:39:29;;;;;;;8.02;5.22;;;11.00;99.90;;;;;;5035676;28;20029;-74
2023/04/02 00:42:05;;;;;;;8.43;4.72;;;11.00;99.90;;;;;;5035438;28;20025;-75
2023/04/02 00:44:42;;;;;;;8.25;4.70;;;11.00;99.90;;;;;;5036722;28;20376;-75
2023/04/02 00:47:17;;;;;;;9.52;5.05;;;10.90;99.90;;;;;;5067491;28;20040;-74
2023/04/02 00:49:43;;;;;;;10.50;4.38;;;10.90;99.90;;;;;;5050425;28;20046;-74
2023/04/02 00:52:15;;;;;;;9.38;4.25;;;10.90;99.90;;;;;;5031765;28;20045;-74
2023/04/02 00:54:49;;;;;;;9.52;3.97;;;10.90;99.90;;;;;;5016064;28;20021;-74
2023/04/02 00:57:19;;;;;;;6.50;4.25;;;10.90;99.90;;;;;;5031917;28;20361;-74
2023/04/02 01:00:14;;;;;;;6.88;3.85;;;10.90;99.90;;;;;;5014844;28;20510;-74
2023/04/02 01:02:41;;;;;;;7.45;3.90;;;10.90;99.90;;;;;;5031972;28;20029;-74
2023/04/02 01:05:16;;;;;;;9.15;4.15;;;10.90;99.90;;;;;;5015128;28;20034;-74
2023/04/02 01:07:57;;;;;;;8.68;4.43;;;10.70;99.90;;;;;;5032829;28;20387;-73
2023/04/02 01:10:32;;;;;;;6.55;4.22;;;10.80;99.90;;;;;;5032794;28;20029;-74
2023/04/02 01:13:11;;;;;;;11.25;4.15;;;10.80;99.90;;;;;;5032840;28;20498;-75
2023/04/02 01:15:42;;;;;;;11.35;5.13;;;10.90;99.90;;;;;;5014917;28;20032;-74
2023/04/02 01:18:32;;;;;;;6.47;4.50;;;10.80;99.90;;;;;;5015319;28;20029;-74
2023/04/02 01:21:13;;;;;;;11.20;4.80;;;10.90;99.90;;;;;;5031529;28;20025;-74
2023/04/02 01:23:59;;;;;;;;;;;10.90;99.90;;;;;;5031983;28;20372;-74
2023/04/02 01:26:47;;;;;;;9.27;4.70;;;11.00;99.90;;;;;;5040255;28;20354;-74
2023/04/02 01:29:18;;;;;;;10.23;4.35;;;11.00;99.90;;;;;;5051547;28;20040;-74
2023/04/02 01:31:44;;;;;;;;;;;11.00;99.90;;;;;;5051219;28;20587;-74
2023/04/02 01:34:15;;;;;;;14.93;5.00;;;11.00;99.90;;;;;;5051363;28;20351;-74
2023/04/02 01:37:14;;;;;;;9.82;4.72;;;11.00;99.90;;;;;;5051071;28;20021;-75
2023/04/02 01:39:46;;;;;;;11.98;4.90;;;11.10;99.90;;;;;;5051035;28;20032;-75
2023/04/02 01:42:32;;;;;;;10.15;4.93;;;11.10;99.90;;;;;;5052278;28;20032;-74
2023/04/02 01:45:08;;;;;;;10.93;5.05;;;10.80;99.90;;;;;;5050790;28;20078;-74
2023/04/02 01:47:34;;;;;;;7.50;4.55;;;10.60;99.90;;;;;;5051138;28;20029;-74
2023/04/02 01:50:19;;;;;;;11.18;5.40;;;10.70;99.90;;;;;;5062365;28;20025;-74
2023/04/02 01:52:49;;;;;;;8.45;5.10;;;10.70;99.90;;;;;;5032164;28;20060;-74
2023/04/02 01:55:34;;;;;;;9.98;5.28;;;10.80;99.90;;;;;;5031057;28;20029;-75
2023/04/02 01:58:00;;;;;;;11.32;5.25;;;10.90;99.90;;;;;;5015356;28;20036;-74
2023/04/02 02:00:27;;;;;;;11.35;6.05;;;11.00;99.90;;;;;;5013528;28;20029;-74
2023/04/02 02:02:53;;;;;;;10.75;5.82;;;11.00;99.90;;;;;;5016900;28;20040;-74
2023/04/02 02:05:21;;;;;;;11.63;5.80;;;11.00;99.90;;;;;;5050170;28;20021;-74
2023/04/02 02:07:48;;;;;;;12.70;5.88;;;10.90;99.90;;;;;;5050566;28;20467;-74
2023/04/02 02:10:36;;;;;;;10.82;5.82;;;11.00;99.90;;;;;;5013659;28;20044;-75
2023/04/02 02:13:02;;;;;;;11.23;5.70;;;11.00;99.90;;;;;;5048508;28;20041;-75
2023/04/02 02:15:31;;;;;;;8.45;6.50;;;11.00;99.90;;;;;;5032166;28;20052;-75
2023/04/02 02:18:00;;;;;;;10.63;5.88;;;11.00;99.90;;;;;;5048889;28;20075;-75
2023/04/02 02:20:26;;;;;;;11.65;5.45;;;11.00;99.90;;;;;;5032534;28;20396;-74
2023/04/02 02:22:52;;;;;;;9.45;5.63;;;11.00;99.90;;;;;;5032453;28;20029;-74
2023/04/02 02:25:20;;;;;;;11.73;5.97;;;10.80;99.90;;;;;;5048863;28;20032;-75
2023/04/02 02:27:55;;;;;;;11.70;6.05;;;10.90;99.90;;;;;;5031886;28;20025;-74
2023/04/02 02:30:38;;;;;;;13.18;6.18;;;10.80;99.90;;;;;;5049570;28;20040;-75
2023/04/02 02:33:25;;;;;;;10.75;6.25;;;10.80;99.90;;;;;;5048771;28;20037;-74
2023/04/02 02:36:23;;;;;;;11.00;6.80;;;10.80;99.90;;;;;;5048696;28;20032;-75
2023/04/02 02:38:56;;;;;;;13.77;6.72;;;10.80;99.90;;;;;;5018537;28;20037;-74
2023/04/02 02:41:43;;;;;;;15.60;7.43;;;10.70;99.90;;;;;;5052490;28;20500;-75
2023/04/02 02:44:21;;;;;;;16.00;7.13;;;10.80;99.90;;;;;;5054283;28;20025;-74
2023/04/02 02:47:01;;;;;;;14.00;6.57;;;10.70;99.90;;;;;;5054932;28;20031;-74
2023/04/02 02:49:31;;;;;;;12.77;7.18;;;10.70;99.90;;;;;;5053497;28;20116;-74
2023/04/02 02:51:59;;;;;;;8.90;6.88;;;10.60;99.90;;;;;;5018145;28;20045;-75
2023/04/02 02:54:26;;;;;;;11.80;7.65;;;10.60;99.90;;;;;;5034182;28;20340;-74
2023/04/02 02:56:58;;;;;;;15.48;7.88;;;10.70;99.90;;;;;;5033862;28;20034;-75
2023/04/02 02:59:25;;;;;;;18.52;7.20;;;10.60;99.90;;;;;;5034045;28;20033;-74
2023/04/02 03:01:51;;;;;;;14.50;7.68;;;10.60;99.90;;;;;;5017006;28;20033;-74
2023/04/02 03:04:21;;;;;;;14.45;7.50;;;10.50;99.90;;;;;;5017604;28;20029;-75
2023/04/02 03:06:51;;;;;;;14.07;7.60;;;10.50;99.90;;;;;;5017485;28;20029;-74
2023/04/02 03:09:36;;;;;;;14.83;7.97;;;10.50;99.90;;;;;;5017466;28;20033;-74
2023/04/02 03:12:27;;;;;;;14.32;7.53;;;10.60;99.90;;;;;;5033435;28;20272;-74
2023/04/02 03:15:20;;;;;;;13.80;7.38;;;10.60;99.90;;;;;;5018979;28;20092;-74
2023/04/02 03:17:54;;;;;;;13.77;6.65;;;10.60;99.90;;;;;;5032882;28;20029;-74
2023/04/02 03:20:36;;;;;;;18.95;8.15;;;10.60;99.90;;;;;;5033614;28;20376;-75
2023/04/02 03:23:18;;;;;;;14.50;7.68;;;10.60;99.90;;;;;;5033902;28;20022;-74
2023/04/02 03:25:56;;;;;;;11.23;7.55;;;10.60;99.90;;;;;;5002650;28;20033;-75
2023/04/02 03:28:28;;;;;;;10.98;7.75;;;10.70;99.90;;;;;;5053486;28;20028;-74
2023/04/02 03:31:02;;;;;;;16.40;7.90;;;10.70;99.90;;;;;;5053110;28;20030;-75
2023/04/02 03:33:31;;;;;;;19.70;8.20;;;10.70;99.90;;;;;;5053340;28;20483;-75
2023/04/02 03:36:21;;;;;;;16.08;8.73;;;10.70;99.90;;;;;;5053160;28;20487;-75
2023/04/02 03:39:09;;;;;;;19.17;8.50;;;10.80;99.90;;;;;;5053081;28;20025;-76
2023/04/02 03:41:38;;;;;;;14.75;9.10;;;10.70;99.90;;;;;;5053508;28;20021;-76
2023/04/02 03:44:06;;;;;;;15.13;9.02;;;10.70;99.90;;;;;;5052808;28;20044;-76
2023/04/02 03:46:40;;;;;;;17.35;8.85;;;10.70;99.90;;;;;;5052777;28;20033;-75
2023/04/02 03:49:10;;;;;;;15.30;8.93;;;10.70;99.90;;;;;;5052925;28;20505;-75
2023/04/02 03:52:01;;;;;;;17.67;8.60;;;10.70;99.90;;;;;;5034207;28;20045;-75
2023/04/02 03:54:27;;;;;;;21.25;9.00;;;10.60;99.90;;;;;;5017958;28;20022;-76
2023/04/02 03:56:53;;;;;;;15.48;9.13;;;10.60;99.90;;;;;;5000252;28;20036;-75
2023/04/02 03:59:42;;;;;;;14.25;8.65;;;10.70;99.90;;;;;;5032823;28;20040;-75
2023/04/02 04:02:41;;;;;;;19.45;9.07;;;10.70;99.90;;;;;;5015837;28;20033;-75
2023/04/02 04:05:25;;;;;;;19.00;9.23;;;10.70;99.90;;;;;;5032905;28;20486;-75
2023/04/02 04:07:52;;;;;;;14.38;8.05;;;10.70;99.90;;;;;;5017463;28;20033;-75
2023/04/02 04:10:21;;;;;;;13.98;8.77;;;10.70;99.90;;;;;;5016130;28;20044;-76
2023/04/02 04:12:48;;;;;;;15.25;8.85;;;10.80;99.90;;;;;;5016497;28;20024;-75
2023/04/02 04:15:36;;;;;;;20.63;9.18;;;10.80;99.90;;;;;;5015853;28;20029;-75
2023/04/02 04:18:09;;;;;;;13.07;8.77;;;10.70;99.90;;;;;;5017465;28;20037;-75
2023/04/02 04:20:44;;;;;;;16.70;9.02;;;10.70;99.90;;;;;;5016937;28;20144;-75
2023/04/02 04:23:18;;;;;;;17.02;8.48;;;10.60;99.90;;;;;;5032111;28;20036;-75
2023/04/02 04:25:44;;;;;;;14.52;8.52;;;10.60;99.90;;;;;;5018558;28;20022;-75
2023/04/02 04:28:46;;;;;;;15.55;8.88;;;10.60;99.90;;;;;;5052258;28;20033;-75
2023/04/02 04:31:54;;;;;;;19.05;9.60;;;10.60;99.90;;;;;;5014177;28;20030;-75
2023/04/02 04:34:41;;;;;;;18.95;8.65;;;10.60;99.90;;;;;;5016045;28;20038;-75
2023/04/02 04:37:23;;;;;;;15.90;8.60;;;10.70;99.90;;;;;;5014940;28;20037;-75
2023/04/02 04:40:05;;;;;;;17.42;8.43;;;10.70;99.90;;;;;;5015987;28;20041;-75
2023/04/02 04:42:32;;;;;;;12.88;8.18;;;10.70;99.90;;;;;;5016527;28;20033;-75
2023/04/02 04:45:35;;;;;;;16.23;8.55;;;10.80;99.90;;;;;;5014636;28;20041;-75
2023/04/02 04:48:19;;;;;;;13.55;8.50;;;10.60;99.90;;;;;;5030217;28;20045;-75
2023/04/02 04:50:49;;;;;;;21.10;9.00;;;10.60;99.90;;;;;;5014313;28;20041;-75
2023/04/02 04:53:18;;;;;;;17.70;8.93;;;10.60;99.90;;;;;;5014133;28;20534;-75
2023/04/02 04:55:45;;;;;;;15.82;8.82;;;10.70;99.90;;;;;;5014913;28;20503;-75
2023/04/02 04:58:21;;;;;;;16.08;8.45;;;10.70;99.90;;;;;;5014532;28;20033;-75
2023/04/02 05:01:02;;;;;;;17.60;9.20;;;10.70;99.90;;;;;;5014036;28;20169;-75
2023/04/02 05:03:37;;;;;;;16.92;9.20;;;10.60;99.90;;;;;;5014665;28;20109;-76
2023/04/02 05:06:10;;;;;;;17.35;8.77;;;10.70;99.90;;;;;;5048475;28;20041;-75
2023/04/02 05:08:38;;;;;;;18.20;8.85;;;10.70;99.90;;;;;;5051460;28;20036;-75
2023/04/02 05:11:08;;;;;;;14.85;9.90;;;10.70;99.90;;;;;;5034820;28;20037;-75
2023/04/02 05:13:40;;;;;;;15.07;9.57;;;10.70;99.90;;;;;;5034736;28;20063;-75
2023/04/02 05:16:09;;;;;;;17.25;9.68;;;10.70;99.90;;;;;;5052235;28;20025;-75
2023/04/02 05:18:39;;;;;;;19.50;9.50;;;10.70;99.90;;;;;;5051018;28;20502;-75
2023/04/02 05:21:18;;;;;;;20.98;9.95;;;10.70;99.90;;;;;;5034374;28;20041;-75
2023/04/02 05:23:51;;;;;;;17.00;9.55;;;10.70;99.90;;;;;;5051391;28;20375;-75
2023/04/02 05:26:31;;;;;;;16.98;9.93;;;10.80;99.90;;;;;;5034958;28;20052;-75
2023/04/02 05:29:02;;;;;;;14.52;9.10;;;10.70;99.90;;;;;;5051101;28;20037;-75
2023/04/02 05:31:41;;;;;;;17.58;8.65;;;10.70;99.90;;;;;;5050771;28;20518;-75
2023/04/02 05:34:07;;;;;;;16.20;9.15;;;10.70;99.90;;;;;;5034728;28;20044;-75
2023/04/02 05:36:33;;;;;;;15.00;10.50;;;10.70;99.90;;;;;;5051950;28;20033;-75
2023/04/02 05:38:59;;;;;;;15.85;10.32;;;10.70;99.90;;;;;;5051170;28;20033;-75
2023/04/02 05:41:39;;;;;;;19.67;10.75;;;10.70;99.90;;;;;;5034460;28;20059;-75
2023/04/02 05:44:18;;;;;;;17.10;9.00;;;10.80;99.90;;;;;;5019490;28;20048;-75
2023/04/02 05:46:57;;;;;;;15.23;10.35;;;10.60;99.90;;;;;;5050519;28;20036;-75
2023/04/02 05:49:26;;;;;;;14.52;11.10;;;10.60;99.90;;;;;;5050475;28;20041;-75
2023/04/02 05:51:55;;;;;;;17.77;10.48;;;10.70;99.90;;;;;;5030958;28;20052;-76
2023/04/02 05:54:33;;;;;;;18.58;10.93;;;10.70;99.90;;;;;;5031082;28;20036;-75
2023/04/02 05:57:01;;;;;;;15.85;9.70;;;10.60;99.90;;;;;;5030996;28;20033;-76
2023/04/02 05:59:30;;;;;;;15.52;10.93;;;10.70;99.90;;;;;;4998543;28;20427;-75
2023/04/02 06:02:01;;;;;;;17.60;10.20;;;10.70;99.90;;;;;;5014311;28;20036;-76
2023/04/02 06:04:46;;;;;;;22.27;11.45;;;10.60;99.90;;;;;;5014969;28;20030;-76
2023/04/02 06:07:20;;;;;;;19.42;10.55;;;10.70;99.90;;;;;;5015131;28;20391;-75
2023/04/02 06:10:16;;;;;;;17.98;10.68;;;10.70;99.90;;;;;;5030896;28;20041;-75
2023/04/02 06:13:02;;;;;;;19.92;10.43;;;10.80;99.90;;;;;;5031033;28;20030;-75
2023/04/02 06:15:29;;;;;;;14.85;10.15;;;10.80;99.90;;;;;;5033041;28;20037;-76
2023/04/02 06:18:18;;;;;;;16.98;10.50;;;10.90;99.90;;;;;;5034835;28;20358;-75
2023/04/02 06:20:45;;;;;;;18.77;11.35;;;10.80;99.90;;;;;;5035962;28;20432;-76
2023/04/02 06:23:20;;;;;;;26.52;10.77;;;10.80;99.90;;;;;;5018457;28;20021;-75
2023/04/02 06:25:58;;;;;;;16.73;10.43;;;10.80;99.90;;;;;;5036942;28;20025;-75
2023/04/02 06:28:32;;;;;;;15.60;10.38;;;10.80;99.90;;;;;;5037776;28;20041;-76
2023/04/02 06:31:00;;;;;;;17.98;9.85;;;10.90;99.90;;;;;;5054156;28;20491;-75
2023/04/02 06:33:26;;;;;;;19.15;10.38;;;10.80;99.90;;;;;;5053749;28;20042;-75
2023/04/02 06:35:53;;;;;;;13.48;10.02;;;10.80;99.90;;;;;;5054518;28;20452;-75
2023/04/02 06:38:24;;;;;;;18.67;10.48;;;10.90;99.90;;;;;;5054381;28;20025;-75
2023/04/02 06:40:57;;;;;;;;;;;10.90;99.90;;;;;;5054829;28;20044;-75
2023/04/02 06:43:35;;;;;;;17.05;9.70;;;10.80;99.90;;;;;;5054173;28;19909;-75
2023/04/02 06:46:12;;;;;;;13.68;8.98;;;10.70;99.90;;;;;;5070180;28;20032;-76
2023/04/02 06:48:38;;;;;;;18.70;9.48;;;10.70;99.90;;;;;;5071802;28;20029;-75
2023/04/02 06:51:06;;;;;;;16.17;10.07;;;10.70;99.90;;;;;;5056689;28;20433;-75
2023/04/02 06:53:37;;;;;;;18.30;10.05;;;10.70;99.90;;;;;;5017901;28;20029;-75
2023/04/02 06:56:37;;;;;;;16.88;9.80;;;10.80;99.90;;;;;;5034273;28;20041;-75
2023/04/02 06:59:06;;;;;;;16.85;9.93;;;10.80;99.90;;;;;;5035174;28;20285;-75
2023/04/02 07:01:38;;;;;;;15.10;9.35;;;10.90;99.90;;;;;;5017593;28;20034;-76
2023/04/02 07:04:04;;;;;;;14.20;10.05;;;11.00;99.90;;;;;;5017567;28;20029;-75
2023/04/02 07:06:30;;;;;;;16.35;9.68;;;11.10;99.90;;;;;;5017495;28;20038;-75
2023/04/02 07:08:56;;;;;;;20.38;10.38;;;11.10;99.90;;;;;;5033915;28;20072;-75
2023/04/02 07:11:22;;;;;;;16.30;10.35;;;11.00;99.90;;;;;;5033943;28;20041;-75
2023/04/02 07:13:49;;;;;;;15.10;9.98;;;11.00;99.90;;;;;;5035144;28;20383;-76
2023/04/02 07:16:17;;;;;;;16.35;10.30;;;11.10;99.90;;;;;;5017018;28;20468;-76
2023/04/02 07:18:43;;;;;;;13.60;10.90;;;11.20;99.90;;;;;;5033699;28;20032;-75
2023/04/02 07:21:09;;;;;;;15.45;11.02;;;11.40;99.90;;;;;;5033585;28;20057;-75
2023/04/02 07:23:36;;;;;;;16.95;11.98;;;11.50;99.90;;;;;;5033711;28;20036;-75
2023/04/02 07:26:02;;;;;;;18.48;11.32;;;11.50;99.90;;;;;;5038326;28;20032;-76
2023/04/02 07:28:28;;;;;;;14.63;9.30;;;11.50;99.90;;;;;;5053374;28;20032;-75
2023/04/02 07:30:54;;;;;;;18.35;12.88;;;11.50;99.90;;;;;;5052660;28;20045;-76
2023/04/02 07:33:23;;;;;;;13.40;9.48;;;11.60;99.90;;;;;;5053365;28;20052;-75
2023/04/02 07:35:50;;;;;;;15.15;9.65;;;11.70;99.90;;;;;;5053312;28;20032;-75
2023/04/02 07:38:16;;;;;;;14.13;10.50;;;11.70;99.90;;;;;;5053366;28;20040;-75
2023/04/02 07:40:42;;;;;;;13.48;10.10;;;11.70;99.90;;;;;;5054516;28;20029;-75
2023/04/02 07:43:08;;;;;;;13.90;9.57;;;11.60;99.90;;;;;;5054326;28;20048;-76
2023/04/02 07:45:34;;;;;;;12.25;8.98;;;11.50;99.90;;;;;;5052346;28;20033;-75
2023/04/02 07:48:08;;;;;;;11.00;8.82;;;11.50;99.90;;;;;;5053146;28;20364;-75
2023/04/02 07:50:34;;;;;;;10.50;8.90;;;11.50;99.90;;;;;;5060175;28;20045;-76
2023/04/02 07:53:00;;;;;;;12.90;10.35;;;11.50;99.90;;;;;;5033089;28;20041;-75
2023/04/02 07:55:26;;;;;;;13.27;9.23;;;11.50;99.90;;;;;;5033039;28;20026;-75
2023/04/02 07:57:54;;;;;;;13.25;9.25;;;11.60;99.90;;;;;;5034125;28;20478;-75
2023/04/02 08:00:21;;;;;;;13.95;9.55;;;11.60;99.90;;;;;;5015899;28;20040;-75
2023/04/02 08:02:47;;;;;;;9.50;8.60;;;11.50;99.90;;;;;;5032894;28;20025;-75
2023/04/02 08:05:14;;;;;;;12.10;9.48;;;11.40;99.90;;;;;;5032993;28;20036;-75
2023/04/02 08:07:40;;;;;;;11.05;9.95;;;11.40;99.90;;;;;;5016569;28;20030;-75
2023/04/02 08:10:08;;;;;;;10.77;9.63;;;11.40;99.90;;;;;;5016144;28;20052;-75
2023/04/02 08:12:34;;;;;;;9.40;8.48;;;11.40;99.90;;;;;;5032738;28;20041;-75
2023/04/02 08:15:00;;;;;;;10.05;8.48;;;11.40;99.90;;;;;;5033589;28;20038;-75
2023/04/02 08:17:30;;;;;;;15.82;9.05;;;11.40;99.90;;;;;;5031938;28;20669;-75
2023/04/02 08:20:03;;;;;;;11.18;8.70;;;11.30;99.90;;;;;;5016692;28;20029;-76
2023/04/02 08:22:29;;;;;;;10.20;7.78;;;11.20;99.90;;;;;;5032563;28;20029;-75
2023/04/02 08:24:55;;;;;;;11.48;7.32;;;11.20;99.90;;;;;;5033722;28;20040;-75
2023/04/02 08:27:24;;;;;;;10.05;7.75;;;11.20;99.90;;;;;;5047687;28;20033;-75
2023/04/02 08:29:50;;;;;;;9.90;8.60;;;11.30;99.90;;;;;;5051927;28;20044;-75
2023/04/02 08:32:17;;;;;;;10.00;8.43;;;11.30;99.90;;;;;;5051708;28;20029;-75
2023/04/02 08:34:43;;;;;;;10.40;7.50;;;11.20;99.90;;;;;;5052299;28;20068;-75
2023/04/02 08:37:13;;;;;;;7.55;6.90;;;11.10;99.90;;;;;;5051488;28;20036;-75
2023/04/02 08:39:39;;;;;;;10.45;7.80;;;11.20;99.90;;;;;;5052205;28;20522;-75
2023/04/02 08:42:34;;;;;;;9.30;7.65;;;11.10;99.90;;;;;;5052022;28;20025;-75
2023/04/02 08:45:12;;;;;;;7.63;6.93;;;11.10;99.90;;;;;;5032618;28;20037;-76
2023/04/02 08:47:39;;;;;;;7.97;7.07;;;11.10;99.90;;;;;;5032449;28;20041;-76
2023/04/02 08:50:29;;;;;;;8.75;6.72;;;11.10;99.90;;;;;;5031815;28;20033;-76
2023/04/02 08:52:56;;;;;;;9.27;6.60;;;11.10;99.90;;;;;;5048765;28;20050;-76
2023/04/02 08:55:41;;;;;;;8.15;5.80;;;11.20;99.90;;;;;;5031394;28;20045;-75
2023/04/02 08:58:16;;;;;;;6.82;5.72;;;11.20;99.90;;;;;;5047579;28;20041;-76
2023/04/02 09:00:43;;;;;;;8.13;6.15;;;11.20;99.90;;;;;;5032508;28;20108;-75
2023/04/02 09:03:19;;;;;;;7.25;5.95;;;11.20;99.90;;;;;;5015018;28;20044;-75
2023/04/02 09:05:45;;;;;;;8.65;5.63;;;11.20;99.90;;;;;;5031795;28;20032;-75
2023/04/02 09:08:23;;;;;;;6.88;5.10;;;11.20;99.90;;;;;;5031053;28;20044;-75
2023/04/02 09:10:57;;;;;;;6.82;6.32;;;11.30;99.90;;;;;;5048124;28;20037;-76
2023/04/02 09:13:25;;;;;;;7.50;6.75;;;11.20;99.90;;;;;;5047283;28;20029;-75
2023/04/02 09:15:57;;;;;;;6.00;4.82;;;11.20;99.90;;;;;;5031139;28;20044;-75
2023/04/02 09:18:26;;;;;;;6.45;5.93;;;11.30;99.90;;;;;;5031429;28;20025;-75
2023/04/02 09:20:52;;;;;;;6.93;6.32;;;11.30;99.90;;;;;;5048062;28;20021;-76
2023/04/02 09:23:22;;;;;;;6.63;5.97;;;11.30;99.90;;;;;;5047884;28;20025;-75
2023/04/02 09:25:50;;;;;;;6.00;5.50;;;11.30;99.90;;;;;;5033708;28;20052;-75
2023/04/02 09:28:19;;;;;;;8.63;6.38;;;11.30;99.90;;;;;;5050962;28;20049;-75
2023/04/02 09:31:15;;;;;;;7.00;5.93;;;11.30;99.90;;;;;;5050598;28;20033;-75
2023/04/02 09:33:46;;;;;;;6.18;5.57;;;11.30;99.90;;;;;;5051394;28;20017;-75
2023/04/02 09:36:25;;;;;;;7.25;4.68;;;11.30;99.90;;;;;;5051177;28;20025;-75
2023/04/02 09:38:59;;;;;;;5.85;4.72;;;11.30;99.90;;;;;;5050978;28;20510;-76
2023/04/02 09:41:27;;;;;;;7.82;5.22;;;11.40;99.90;;;;;;5050812;28;20029;-75
2023/04/02 09:44:20;;;;;;;6.60;5.20;;;11.40;99.90;;;;;;5051014;28;20025;-76
2023/04/02 09:47:02;;;;;;;6.20;5.60;;;11.50;99.90;;;;;;5068638;28;20040;-76
2023/04/02 09:49:30;;;;;;;7.38;5.05;;;11.50;99.90;;;;;;5065441;28;20380;-76
2023/04/02 09:52:06;;;;;;;5.85;5.25;;;11.50;99.90;;;;;;5030953;28;20046;-76
2023/04/02 09:54:32;;;;;;;6.40;5.38;;;11.60;99.90;;;;;;5032266;28;20040;-75
2023/04/02 09:57:00;;;;;;;5.90;5.30;;;11.70;99.90;;;;;;5030825;28;20038;-76
2023/04/02 09:59:26;;;;;;;5.32;4.93;;;11.80;99.90;;;;;;5014684;28;20032;-75
2023/04/02 10:01:52;;;;;;;5.45;4.95;;;11.90;99.90;;;;;;5030417;28;20038;-76
2023/04/02 10:04:34;;;;;;;5.50;4.97;;;12.10;99.90;;;;;;5032062;28;20022;-75
2023/04/02 10:07:01;;;;;;;5.40;4.60;;;12.20;99.90;;;;;;5032153;28;20372;-76
2023/04/02 10:09:29;;;;;;;5.72;4.82;;;12.30;99.90;;;;;;5014559;28;20021;-76
2023/04/02 10:11:55;;;;;;;5.28;4.72;;;12.50;99.90;;;;;;5014404;28;20033;-75
2023/04/02 10:14:27;;;;;;;4.90;4.60;;;12.70;99.90;;;;;;5014555;28;20032;-76
2023/04/02 10:17:05;;;;;;;4.50;4.20;;;12.90;99.90;;;;;;5030440;28;20034;-76
2023/04/02 10:19:39;;;;;;;4.85;4.50;;;12.90;99.90;;;;;;5030953;28;20022;-75
2023/04/02 10:22:15;;;;;;;4.57;4.18;;;12.80;99.90;;;;;;5015013;28;20493;-76
2023/04/02 10:24:41;;;;;;;4.47;4.18;;;12.70;99.90;;;;;;5014915;28;20471;-75
2023/04/02 10:27:16;;;;;;;4.28;3.88;;;12.70;99.90;;;;;;5044931;28;20037;-76
2023/04/02 10:30:02;;;;;;;4.47;4.13;;;12.70;99.90;;;;;;5051628;28;20028;-76
2023/04/02 10:32:47;;;;;;;4.43;4.13;;;12.70;99.90;;;;;;5049856;28;20040;-75
2023/04/02 10:35:25;;;;;;;3.88;3.58;;;12.50;99.90;;;;;;5051756;28;20464;-75
2023/04/02 10:38:09;;;;;;;3.63;3.33;;;12.50;99.90;;;;;;5051688;28;20025;-75
2023/04/02 10:40:40;;;;;;;5.05;3.60;;;12.50;99.90;;;;;;5050130;28;20033;-76
2023/04/02 10:43:25;;;;;;;4.28;3.97;;;12.70;99.90;;;;;;5050520;28;20029;-75
2023/04/02 10:46:10;;;;;;;4.75;4.35;;;13.00;99.90;;;;;;5051306;28;20478;-75
2023/04/02 10:49:15;;;;;;;3.95;3.60;;;13.20;99.90;;;;;;5050375;28;20356;-75
2023/04/02 10:51:54;;;;;;;4.70;4.40;;;13.50;99.90;;;;;;5010337;28;20417;-76
2023/04/02 10:54:41;;;;;;;4.78;4.38;;;13.70;99.90;;;;;;4978278;28;20042;-76
2023/04/02 10:57:22;;;;;;;5.35;4.60;;;13.80;99.90;;;;;;5009680;28;20038;-75
2023/04/02 11:00:15;;;;;;;4.95;4.55;;;13.80;99.90;;;;;;5009857;28;20045;-75
2023/04/02 11:02:57;;;;;;;4.68;4.28;;;13.50;99.90;;;;;;4995397;28;20547;-76
2023/04/02 11:05:28;;;;;;;5.57;4.22;;;13.20;99.90;;;;;;4981417;28;20033;-76
2023/04/02 11:08:06;;;;;;;4.35;4.00;;;13.10;99.90;;;;;;4996836;28;20033;-76
2023/04/02 11:10:34;;;;;;;5.32;3.70;;;12.90;99.90;;;;;;4980822;28;20077;-76
2023/04/02 11:13:12;;;;;;;4.60;4.30;;;12.90;99.90;;;;;;4980733;28;20094;-76
2023/04/02 11:15:38;;;;;;;5.10;3.25;;;12.80;99.90;;;;;;4981412;28;20392;-76
2023/04/02 11:18:05;;;;;;;3.88;3.67;;;12.80;99.90;;;;;;4980423;28;20040;-76
2023/04/02 11:21:03;;;;;;;3.70;3.40;;;12.80;99.90;;;;;;4996650;28;20040;-75
2023/04/02 11:23:31;;;;;;;3.60;3.30;;;12.80;99.90;;;;;;5031660;28;20037;-76
2023/04/02 11:26:28;;;;;;;4.00;3.70;;;12.90;99.90;;;;;;5037405;28;20032;-76
2023/04/02 11:29:22;;;;;;;6.53;6.18;;;12.90;99.90;;;;;;5054694;28;20029;-76
2023/04/02 11:31:48;;;;;;;3.40;3.10;;;12.90;99.90;;;;;;5049241;28;20059;-76
2023/04/02 11:34:34;;;;;;;3.60;3.30;;;13.10;99.90;;;;;;5053492;28;20025;-76
2023/04/02 11:37:01;;;;;;;3.85;3.53;;;13.20;99.90;;;;;;5053626;28;20320;-76
2023/04/02 11:39:45;;;;;;;4.00;3.80;;;13.30;99.90;;;;;;5052927;28;20033;-76
2023/04/02 11:42:23;;;;;;;4.30;4.00;;;13.30;99.90;;;;;;5053151;28;20507;-76
2023/04/02 11:44:50;;;;;;;4.00;3.60;;;13.40;99.90;;;;;;5033225;28;20034;-76
2023/04/02 11:47:23;;;;;;;3.92;3.60;;;13.40;99.90;;;;;;5016446;28;20037;-76
2023/04/02 11:49:57;;;;;;;4.10;3.75;;;13.30;99.90;;;;;;5037543;28;20024;-76
2023/04/02 11:52:32;;;;;;;3.60;3.30;;;13.30;99.90;;;;;;5053801;28;20049;-75
2023/04/02 11:55:18;;;;;;;3.30;3.10;;;13.20;99.90;;;;;;5053059;28;20387;-75
2023/04/02 11:57:55;;;;;;;3.10;2.90;;;13.00;99.90;;;;;;5036183;28;20403;-76
2023/04/02 12:00:32;;;;;;;4.07;3.25;;;13.00;99.90;;;;;;5052535;28;20026;-75
2023/04/02 12:03:24;;;;;;;3.70;3.30;;;13.00;99.90;;;;;;5052801;28;20506;-76
2023/04/02 12:05:53;;;;;;;3.80;3.10;;;13.00;99.90;;;;;;5052912;28;20033;-76
2023/04/02 12:08:22;;;;;;;3.53;3.13;;;13.00;99.90;;;;;;5052492;28;20029;-76
2023/04/02 12:11:01;;;;;;;3.10;2.90;;;13.00;99.90;;;;;;5052692;28;20059;-76
2023/04/02 12:13:39;;;;;;;3.28;3.05;;;13.10;99.90;;;;;;5035610;28;20399;-76
2023/04/02 12:16:10;;;;;;;3.70;3.40;;;13.10;99.90;;;;;;5053316;28;20048;-76
2023/04/02 12:18:45;;;;;;;3.20;3.00;;;13.00;99.90;;;;;;5053798;28;20028;-76
2023/04/02 12:21:19;;;;;;;3.58;3.28;;;13.10;99.90;;;;;;5052140;28;20378;-76
2023/04/02 12:23:46;;;;;;;3.70;3.50;;;13.10;99.90;;;;;;5036249;28;20082;-75
2023/04/02 12:26:45;;;;;;;3.53;3.22;;;13.10;99.90;;;;;;5052326;28;20028;-76
2023/04/02 12:29:25;;;;;;;3.05;2.85;;;13.00;99.90;;;;;;5044647;28;20067;-76
2023/04/02 12:31:54;;;;;;;3.38;3.08;;;13.00;99.90;;;;;;5051685;28;20037;-76
2023/04/02 12:34:22;;;;;;;3.22;3.00;;;13.00;99.90;;;;;;5053404;28;20408;-76
2023/04/02 12:36:58;;;;;;;3.28;2.97;;;13.00;99.90;;;;;;5019296;28;20141;-75
2023/04/02 12:39:25;;;;;;;3.25;3.03;;;13.10;99.90;;;;;;5052107;28;20025;-76
2023/04/02 12:41:51;;;;;;;3.20;2.95;;;13.30;99.90;;;;;;5019095;28;20037;-76
2023/04/02 12:44:23;;;;;;;3.47;3.28;;;13.20;99.90;;;;;;5035702;28;20029;-75
2023/04/02 12:46:51;;;;;;;3.17;2.97;;;13.10;99.90;;;;;;5068367;28;20511;-76
2023/04/02 12:49:29;;;;;;;5.82;3.58;;;13.10;99.90;;;;;;5051851;28;20029;-75
2023/04/02 12:51:55;;;;;;;3.47;3.25;;;13.00;99.90;;;;;;5032590;28;20053;-75
2023/04/02 12:54:22;;;;;;;3.92;3.72;;;12.90;99.90;;;;;;5031970;28;20029;-76
2023/04/02 12:56:48;;;;;;;4.68;3.90;;;12.80;99.90;;;;;;5031890;28;20037;-76
2023/04/02 12:59:34;;;;;;;5.07;4.78;;;12.70;99.90;;;;;;4999081;28;20036;-76
2023/04/02 13:02:02;;;;;;;3.60;3.40;;;12.70;99.90;;;;;;5015432;28;20033;-76
2023/04/02 13:04:28;;;;;;;4.80;4.40;;;12.70;99.90;;;;;;5015119;28;20040;-76
2023/04/02 13:06:54;;;;;;;4.03;3.72;;;12.70;99.90;;;;;;5031742;28;20025;-76
2023/04/02 13:09:33;;;;;;;4.60;4.20;;;12.90;99.90;;;;;;4998758;28;20541;-76
2023/04/02 13:12:00;;;;;;;5.20;4.80;;;12.90;99.90;;;;;;5031560;28;20037;-76
2023/04/02 13:14:26;;;;;;;4.95;4.28;;;13.10;99.90;;;;;;5015339;28;20484;-76
2023/04/02 13:16:52;;;;;;;3.40;3.20;;;13.20;99.90;;;;;;5031070;28;20506;-76